BBC Livorno — V2QJ2 — position and weather

sailwx.info

Track history (hours):
 
Tides and Currents Weather Stations Pressure Air Temp Water Temp Dewpoint Dewpoint Depression Visibility Wind Speed Wind Dir Waves Ship Positions

BBC Livorno

Last reported at 2017-Oct-08 17:49 UTC. Time now 2017-Oct-18 20:35 UTC.
Position N 36°41' E 000°29'.
Warning: this ship's position is 10 days out of date.

Length 130 m; draft 6.3 m.

Type: Cargo ship. MMSI: 305775000.

Date/timePositionNaut miles runAvg speedWind from/ knotsBaromVisibWave heightAir tempDewpointWater temp
2017-Oct-08 17:49N 36°41' E 000°29'310.0
2017-Oct-08 17:30N 36°41' E 000°25'5 9.9
2017-Oct-08 17:00N 36°40' E 000°19'510.1
2017-Oct-08 16:30N 36°40' E 000°13'510.0
2017-Oct-08 16:00N 36°39' E 000°07'4310.2
2017-Oct-08 11:50N 36°31' W 000°45'410.4
2017-Oct-08 11:28N 36°31' W 000°50'  
2017-Oct-05 08:15N 35°59' W 005°11'128 6.1
2017-Oct-04 11:15N 36°15' W 007°48'3 9.5
2017-Oct-04 10:56N 36°16' W 007°52'4 9.6
2017-Oct-04 10:29N 36°17' W 007°57'5 9.6
2017-Oct-04 10:00N 36°18' W 008°03'1010.0
2017-Oct-04 08:58N 36°21' W 008°15'1310.3
2017-Oct-04 07:41N 36°25' W 008°31'210.3
2017-Oct-04 07:30N 36°25' W 008°33'510.5
2017-Oct-04 07:00N 36°26' W 008°39'710.8
2017-Oct-04 06:21N 36°28' W 008°48'410.9
2017-Oct-04 06:00N 36°29' W 008°52'510.8
2017-Oct-04 05:30N 36°31' W 008°59'510.7
2017-Oct-04 05:00N 36°32' W 009°05'510.5
2017-Oct-04 04:30N 36°33' W 009°12'510.3
2017-Oct-04 04:00N 36°34' W 009°18'511.1
2017-Oct-04 03:31N 36°39' W 009°22'611.1
2017-Oct-04 03:00N 36°43' W 009°27'510.8
2017-Oct-04 02:30N 36°47' W 009°32'510.3
2017-Oct-04 02:00N 36°52' W 009°34'510.6
2017-Oct-04 01:30N 36°57' W 009°35'510.7
2017-Oct-04 01:00N 37°02' W 009°36'610.2
2017-Oct-04 00:27N 37°08' W 009°36'510.5
2017-Oct-04 00:01N 37°12' W 009°34'510.5
2017-Oct-03 23:31N 37°17' W 009°32'510.4
2017-Oct-03 23:00N 37°22' W 009°30'510.5
2017-Oct-03 22:31N 37°27' W 009°27'510.8
2017-Oct-03 22:00N 37°32' W 009°25'511.0
2017-Oct-03 21:30N 37°37' W 009°22'510.6
2017-Oct-03 21:00N 37°42' W 009°20'510.8
2017-Oct-03 20:30N 37°47' W 009°18'510.8
2017-Oct-03 20:00N 37°52' W 009°15'511.0
2017-Oct-03 19:31N 37°57' W 009°13'611.1
2017-Oct-03 19:00N 38°02' W 009°10'611.1
2017-Oct-03 18:30N 38°08' W 009°08'510.9
2017-Oct-03 18:01N 38°13' W 009°05'510.8
2017-Oct-03 17:31N 38°18' W 009°03'510.9
2017-Oct-03 17:00N 38°23' W 009°01'611.3
2017-Oct-03 16:30N 38°28' W 008°57'5 8.6
2017-Oct-03 15:58N 38°31' W 008°53'0 0.0
2017-Oct-03 15:28N 38°31' W 008°53'0 0.0
2017-Oct-03 14:58N 38°31' W 008°53'0 0.0
2017-Oct-03 13:55N 38°31' W 008°53'0 0.0
2017-Oct-03 13:28N 38°31' W 008°53'0 0.0
2017-Oct-03 12:58N 38°31' W 008°53'0 0.0
2017-Oct-03 12:28N 38°31' W 008°53'0 0.0
2017-Oct-03 11:58N 38°31' W 008°53'0 0.0
2017-Oct-03 11:28N 38°31' W 008°53'0 0.0
2017-Oct-03 10:58N 38°31' W 008°53'0 0.0
2017-Oct-03 10:01N 38°31' W 008°53'0 0.0
2017-Oct-03 09:58N 38°31' W 008°53'0 0.0
2017-Oct-03 09:28N 38°31' W 008°53'0 0.0
2017-Oct-03 08:55N 38°31' W 008°53'0 0.0
2017-Oct-03 08:28N 38°31' W 008°53'0 0.0
2017-Oct-03 07:58N 38°31' W 008°53'0 0.0
2017-Oct-03 07:25N 38°31' W 008°53'0 0.0
2017-Oct-03 06:58N 38°31' W 008°53'0 0.0
2017-Oct-03 06:25N 38°31' W 008°53'0 0.0
2017-Oct-03 05:55N 38°31' W 008°53'0 0.0
2017-Oct-03 05:28N 38°31' W 008°53'0 0.0
2017-Oct-03 04:58N 38°31' W 008°53'0 0.0
2017-Oct-03 04:28N 38°31' W 008°53'0 0.0
2017-Oct-03 03:58N 38°31' W 008°53'0 0.0
2017-Oct-03 03:28N 38°31' W 008°53'0 0.0
2017-Oct-03 02:58N 38°31' W 008°53'0 0.0
2017-Oct-03 02:28N 38°31' W 008°53'0 0.0
2017-Oct-03 01:52N 38°31' W 008°53'0 0.0
2017-Oct-03 01:28N 38°31' W 008°53'0 0.0
2017-Oct-03 00:58N 38°31' W 008°53'0 0.0
2017-Oct-03 00:28N 38°31' W 008°53'0 0.0
2017-Oct-02 23:55N 38°31' W 008°53'0 0.0
2017-Oct-02 23:28N 38°31' W 008°53'0 0.0
2017-Oct-02 22:58N 38°31' W 008°53'0 0.0
2017-Oct-02 22:25N 38°31' W 008°53'0 0.0
2017-Oct-02 20:58N 38°31' W 008°53'0 0.0
2017-Oct-02 20:28N 38°31' W 008°53'0 0.0
2017-Oct-02 19:49N 38°31' W 008°53'0 0.0
2017-Oct-02 19:16N 38°31' W 008°53'0 0.0
2017-Oct-02 18:55N 38°31' W 008°53'0 0.0
2017-Oct-02 18:16N 38°31' W 008°53'0 0.0
2017-Oct-02 17:37N 38°31' W 008°53'0 0.0
2017-Oct-02 17:25N 38°31' W 008°53'0 0.0
2017-Oct-02 16:49N 38°31' W 008°53'0 0.0
2017-Oct-02 16:25N 38°31' W 008°53'0 0.0
2017-Oct-02 15:58N 38°31' W 008°53'0 0.0
2017-Oct-02 15:28N 38°31' W 008°53'0 0.0
2017-Oct-02 12:04N 38°31' W 008°53'0 0.0
2017-Oct-02 11:58N 38°31' W 008°53'0 0.0
2017-Oct-02 11:28N 38°31' W 008°53'0 0.0
2017-Oct-02 10:58N 38°31' W 008°53'0 0.0
2017-Oct-02 10:28N 38°31' W 008°53'0 0.0
2017-Oct-02 09:58N 38°31' W 008°53'0 0.0
2017-Oct-02 09:28N 38°31' W 008°53'0 0.0
2017-Oct-02 08:58N 38°31' W 008°53'0 0.0
2017-Oct-02 08:28N 38°31' W 008°53'0 0.0
2017-Oct-02 07:58N 38°31' W 008°53'0 0.0
2017-Oct-02 07:28N 38°31' W 008°53'0 0.0
2017-Oct-02 06:58N 38°31' W 008°53'0 0.0
2017-Oct-02 06:28N 38°31' W 008°53'0 0.0
2017-Oct-02 05:58N 38°31' W 008°53'0 0.0
2017-Oct-02 05:28N 38°31' W 008°53'0 0.0
2017-Oct-02 04:58N 38°31' W 008°53'0 0.0
2017-Oct-02 04:28N 38°31' W 008°53'0 0.0
2017-Oct-02 03:58N 38°31' W 008°53'0 0.0
2017-Oct-02 03:28N 38°31' W 008°53'0 0.0
2017-Oct-02 02:58N 38°31' W 008°53'0 0.0
2017-Oct-02 02:28N 38°31' W 008°53'0 0.0
2017-Oct-02 01:58N 38°31' W 008°53'0 0.0
2017-Oct-02 01:28N 38°31' W 008°53'0 0.0
2017-Oct-02 00:58N 38°31' W 008°53'0 0.0
2017-Oct-02 00:25N 38°31' W 008°53'0 0.0
2017-Oct-01 23:58N 38°31' W 008°53'0 0.0
2017-Oct-01 22:19N 38°31' W 008°53'0 0.0
2017-Oct-01 21:49N 38°31' W 008°53'0 0.0
2017-Oct-01 21:25N 38°31' W 008°53'0 0.0
2017-Oct-01 20:55N 38°31' W 008°53'0 0.0
2017-Oct-01 20:16N 38°31' W 008°53'0 0.0
2017-Oct-01 19:55N 38°31' W 008°53'0 0.0
2017-Oct-01 19:22N 38°31' W 008°53'0 0.0
2017-Oct-01 18:58N 38°31' W 008°53'0 0.0
2017-Oct-01 18:25N 38°31' W 008°53'0 0.0
2017-Oct-01 17:58N 38°31' W 008°53'0 0.0
2017-Oct-01 17:25N 38°31' W 008°53'0 0.0
2017-Oct-01 16:58N 38°31' W 008°53'0 0.0
2017-Oct-01 16:28N 38°31' W 008°53'0 0.0
2017-Oct-01 16:00N 38°31' W 008°53'1 1.8
2017-Oct-01 15:30N 38°31' W 008°54'4 8.5
2017-Oct-01 15:00N 38°28' W 008°58'5 9.1
2017-Oct-01 14:30N 38°24' W 009°01'510.0
2017-Oct-01 14:00N 38°23' W 009°07'5 9.6
2017-Oct-01 13:30N 38°22' W 009°13'5 9.7
2017-Oct-01 13:00N 38°23' W 009°19'5 9.9
2017-Oct-01 12:30N 38°25' W 009°25'5 9.8
2017-Oct-01 12:00N 38°26' W 009°31'5 9.7
2017-Oct-01 11:31N 38°27' W 009°37'5 9.4
2017-Oct-01 11:00N 38°29' W 009°43'5 9.1
2017-Oct-01 10:31N 38°30' W 009°48'5 9.3
2017-Oct-01 10:00N 38°32' W 009°54'5 9.3
2017-Oct-01 09:30N 38°33' W 009°60'5 9.6
2017-Oct-01 09:01N 38°36' W 010°04'611.0
2017-Oct-01 08:30N 38°42' W 010°05'611.2
2017-Oct-01 08:00N 38°47' W 010°05'510.9
2017-Oct-01 07:30N 38°53' W 010°05'510.8
2017-Oct-01 07:00N 38°58' W 010°05'510.5
2017-Oct-01 06:30N 39°03' W 010°05'510.6
2017-Oct-01 06:00N 39°09' W 010°05'510.3
2017-Oct-01 05:30N 39°14' W 010°06'710.6
2017-Oct-01 04:48N 39°21' W 010°06'310.5
2017-Oct-01 04:29N 39°25' W 010°06'610.7
2017-Oct-01 03:54N 39°31' W 010°06'313 7.1
2017-Sep-29 07:33N 43°50' W 006°12'5 9.8
2017-Sep-29 07:00N 43°50' W 006°04'6 9.9
2017-Sep-29 06:23N 43°49' W 005°56'4 9.8
2017-Sep-29 06:00N 43°49' W 005°51'5 9.6
2017-Sep-29 05:31N 43°48' W 005°44'5 9.7
2017-Sep-29 05:01N 43°48' W 005°37'510.0
2017-Sep-29 04:31N 43°47' W 005°30'510.1
2017-Sep-29 04:00N 43°46' W 005°24'5 9.9
2017-Sep-29 03:31N 43°46' W 005°17'510.0
2017-Sep-29 02:59N 43°45' W 005°10'510.3
2017-Sep-29 02:31N 43°45' W 005°03'510.2
2017-Sep-29 02:01N 43°44' W 004°56'510.2
2017-Sep-29 01:31N 43°44' W 004°49'610.3
2017-Sep-29 00:58N 43°43' W 004°41'510.6
2017-Sep-29 00:30N 43°42' W 004°34'510.7
2017-Sep-29 00:00N 43°42' W 004°27'510.5
2017-Sep-28 23:30N 43°41' W 004°20'510.3
2017-Sep-28 23:00N 43°41' W 004°13'510.3
2017-Sep-28 22:30N 43°40' W 004°06'510.2
2017-Sep-28 22:00N 43°39' W 003°59'510.2
2017-Sep-28 21:31N 43°39' W 003°52'510.3
2017-Sep-28 21:00N 43°38' W 003°45'510.1
2017-Sep-28 20:30N 43°38' W 003°38'5 9.8
2017-Sep-28 20:01N 43°36' W 003°31'5 9.7
2017-Sep-28 19:31N 43°34' W 003°25'5 9.7
2017-Sep-28 19:01N 43°32' W 003°19'5 9.8
2017-Sep-28 18:30N 43°30' W 003°13'510.1
2017-Sep-28 18:01N 43°26' W 003°08'  
Track history (hours):
 
Tides and Currents Weather Stations Pressure Air Temp Water Temp Dewpoint Dewpoint Depression Visibility Wind Speed Wind Dir Waves Ship Positions

BBC Livorno

Last reported at 2017-Oct-08 17:49 UTC. Time now 2017-Oct-18 20:35 UTC.
Position N 36°41' E 000°29'.
Warning: this ship's position is 10 days out of date.

Length 130 m; draft 6.3 m.

Type: Cargo ship. MMSI: 305775000.

Date/timePositionNaut miles runAvg speedWind from/ knotsBaromVisibWave heightAir tempDewpointWater temp
2017-Oct-08 17:49N 36°41' E 000°29'310.0
2017-Oct-08 17:30N 36°41' E 000°25'5 9.9
2017-Oct-08 17:00N 36°40' E 000°19'510.1
2017-Oct-08 16:30N 36°40' E 000°13'510.0
2017-Oct-08 16:00N 36°39' E 000°07'4310.2
2017-Oct-08 11:50N 36°31' W 000°45'410.4
2017-Oct-08 11:28N 36°31' W 000°50'  
2017-Oct-05 08:15N 35°59' W 005°11'128 6.1
2017-Oct-04 11:15N 36°15' W 007°48'3 9.5
2017-Oct-04 10:56N 36°16' W 007°52'4 9.6
2017-Oct-04 10:29N 36°17' W 007°57'5 9.6
2017-Oct-04 10:00N 36°18' W 008°03'1010.0
2017-Oct-04 08:58N 36°21' W 008°15'1310.3
2017-Oct-04 07:41N 36°25' W 008°31'210.3
2017-Oct-04 07:30N 36°25' W 008°33'510.5
2017-Oct-04 07:00N 36°26' W 008°39'710.8
2017-Oct-04 06:21N 36°28' W 008°48'410.9
2017-Oct-04 06:00N 36°29' W 008°52'510.8
2017-Oct-04 05:30N 36°31' W 008°59'510.7
2017-Oct-04 05:00N 36°32' W 009°05'510.5
2017-Oct-04 04:30N 36°33' W 009°12'510.3
2017-Oct-04 04:00N 36°34' W 009°18'511.1
2017-Oct-04 03:31N 36°39' W 009°22'611.1
2017-Oct-04 03:00N 36°43' W 009°27'510.8
2017-Oct-04 02:30N 36°47' W 009°32'510.3
2017-Oct-04 02:00N 36°52' W 009°34'510.6
2017-Oct-04 01:30N 36°57' W 009°35'510.7
2017-Oct-04 01:00N 37°02' W 009°36'610.2
2017-Oct-04 00:27N 37°08' W 009°36'510.5
2017-Oct-04 00:01N 37°12' W 009°34'510.5
2017-Oct-03 23:31N 37°17' W 009°32'510.4
2017-Oct-03 23:00N 37°22' W 009°30'510.5
2017-Oct-03 22:31N 37°27' W 009°27'510.8
2017-Oct-03 22:00N 37°32' W 009°25'511.0
2017-Oct-03 21:30N 37°37' W 009°22'510.6
2017-Oct-03 21:00N 37°42' W 009°20'510.8
2017-Oct-03 20:30N 37°47' W 009°18'510.8
2017-Oct-03 20:00N 37°52' W 009°15'511.0
2017-Oct-03 19:31N 37°57' W 009°13'611.1
2017-Oct-03 19:00N 38°02' W 009°10'611.1
2017-Oct-03 18:30N 38°08' W 009°08'510.9
2017-Oct-03 18:01N 38°13' W 009°05'510.8
2017-Oct-03 17:31N 38°18' W 009°03'510.9
2017-Oct-03 17:00N 38°23' W 009°01'611.3
2017-Oct-03 16:30N 38°28' W 008°57'5 8.6
2017-Oct-03 15:58N 38°31' W 008°53'0 0.0
2017-Oct-03 15:28N 38°31' W 008°53'0 0.0
2017-Oct-03 14:58N 38°31' W 008°53'0 0.0
2017-Oct-03 13:55N 38°31' W 008°53'0 0.0
2017-Oct-03 13:28N 38°31' W 008°53'0 0.0
2017-Oct-03 12:58N 38°31' W 008°53'0 0.0
2017-Oct-03 12:28N 38°31' W 008°53'0 0.0
2017-Oct-03 11:58N 38°31' W 008°53'0 0.0
2017-Oct-03 11:28N 38°31' W 008°53'0 0.0
2017-Oct-03 10:58N 38°31' W 008°53'0 0.0
2017-Oct-03 10:01N 38°31' W 008°53'0 0.0
2017-Oct-03 09:58N 38°31' W 008°53'0 0.0
2017-Oct-03 09:28N 38°31' W 008°53'0 0.0
2017-Oct-03 08:55N 38°31' W 008°53'0 0.0
2017-Oct-03 08:28N 38°31' W 008°53'0 0.0
2017-Oct-03 07:58N 38°31' W 008°53'0 0.0
2017-Oct-03 07:25N 38°31' W 008°53'0 0.0
2017-Oct-03 06:58N 38°31' W 008°53'0 0.0
2017-Oct-03 06:25N 38°31' W 008°53'0 0.0
2017-Oct-03 05:55N 38°31' W 008°53'0 0.0
2017-Oct-03 05:28N 38°31' W 008°53'0 0.0
2017-Oct-03 04:58N 38°31' W 008°53'0 0.0
2017-Oct-03 04:28N 38°31' W 008°53'0 0.0
2017-Oct-03 03:58N 38°31' W 008°53'0 0.0
2017-Oct-03 03:28N 38°31' W 008°53'0 0.0
2017-Oct-03 02:58N 38°31' W 008°53'0 0.0
2017-Oct-03 02:28N 38°31' W 008°53'0 0.0
2017-Oct-03 01:52N 38°31' W 008°53'0 0.0
2017-Oct-03 01:28N 38°31' W 008°53'0 0.0
2017-Oct-03 00:58N 38°31' W 008°53'0 0.0
2017-Oct-03 00:28N 38°31' W 008°53'0 0.0
2017-Oct-02 23:55N 38°31' W 008°53'0 0.0
2017-Oct-02 23:28N 38°31' W 008°53'0 0.0
2017-Oct-02 22:58N 38°31' W 008°53'0 0.0
2017-Oct-02 22:25N 38°31' W 008°53'0 0.0
2017-Oct-02 20:58N 38°31' W 008°53'0 0.0
2017-Oct-02 20:28N 38°31' W 008°53'0 0.0
2017-Oct-02 19:49N 38°31' W 008°53'0 0.0
2017-Oct-02 19:16N 38°31' W 008°53'0 0.0
2017-Oct-02 18:55N 38°31' W 008°53'0 0.0
2017-Oct-02 18:16N 38°31' W 008°53'0 0.0
2017-Oct-02 17:37N 38°31' W 008°53'0 0.0
2017-Oct-02 17:25N 38°31' W 008°53'0 0.0
2017-Oct-02 16:49N 38°31' W 008°53'0 0.0
2017-Oct-02 16:25N 38°31' W 008°53'0 0.0
2017-Oct-02 15:58N 38°31' W 008°53'0 0.0
2017-Oct-02 15:28N 38°31' W 008°53'0 0.0
2017-Oct-02 12:04N 38°31' W 008°53'0 0.0
2017-Oct-02 11:58N 38°31' W 008°53'0 0.0
2017-Oct-02 11:28N 38°31' W 008°53'0 0.0
2017-Oct-02 10:58N 38°31' W 008°53'0 0.0
2017-Oct-02 10:28N 38°31' W 008°53'0 0.0
2017-Oct-02 09:58N 38°31' W 008°53'0 0.0
2017-Oct-02 09:28N 38°31' W 008°53'0 0.0
2017-Oct-02 08:58N 38°31' W 008°53'0 0.0
2017-Oct-02 08:28N 38°31' W 008°53'0 0.0
2017-Oct-02 07:58N 38°31' W 008°53'0 0.0
2017-Oct-02 07:28N 38°31' W 008°53'0 0.0
2017-Oct-02 06:58N 38°31' W 008°53'0 0.0
2017-Oct-02 06:28N 38°31' W 008°53'0 0.0
2017-Oct-02 05:58N 38°31' W 008°53'0 0.0
2017-Oct-02 05:28N 38°31' W 008°53'0 0.0
2017-Oct-02 04:58N 38°31' W 008°53'0 0.0
2017-Oct-02 04:28N 38°31' W 008°53'0 0.0
2017-Oct-02 03:58N 38°31' W 008°53'0 0.0
2017-Oct-02 03:28N 38°31' W 008°53'0 0.0
2017-Oct-02 02:58N 38°31' W 008°53'0 0.0
2017-Oct-02 02:28N 38°31' W 008°53'0 0.0
2017-Oct-02 01:58N 38°31' W 008°53'0 0.0
2017-Oct-02 01:28N 38°31' W 008°53'0 0.0
2017-Oct-02 00:58N 38°31' W 008°53'0 0.0
2017-Oct-02 00:25N 38°31' W 008°53'0 0.0
2017-Oct-01 23:58N 38°31' W 008°53'0 0.0
2017-Oct-01 22:19N 38°31' W 008°53'0 0.0
2017-Oct-01 21:49N 38°31' W 008°53'0 0.0
2017-Oct-01 21:25N 38°31' W 008°53'0 0.0
2017-Oct-01 20:55N 38°31' W 008°53'0 0.0
2017-Oct-01 20:16N 38°31' W 008°53'0 0.0
2017-Oct-01 19:55N 38°31' W 008°53'0 0.0
2017-Oct-01 19:22N 38°31' W 008°53'0 0.0
2017-Oct-01 18:58N 38°31' W 008°53'0 0.0
2017-Oct-01 18:25N 38°31' W 008°53'0 0.0
2017-Oct-01 17:58N 38°31' W 008°53'0 0.0
2017-Oct-01 17:25N 38°31' W 008°53'0 0.0
2017-Oct-01 16:58N 38°31' W 008°53'0 0.0
2017-Oct-01 16:28N 38°31' W 008°53'0 0.0
2017-Oct-01 16:00N 38°31' W 008°53'1 1.8
2017-Oct-01 15:30N 38°31' W 008°54'4 8.5
2017-Oct-01 15:00N 38°28' W 008°58'5 9.1
2017-Oct-01 14:30N 38°24' W 009°01'510.0
2017-Oct-01 14:00N 38°23' W 009°07'5 9.6
2017-Oct-01 13:30N 38°22' W 009°13'5 9.7
2017-Oct-01 13:00N 38°23' W 009°19'5 9.9
2017-Oct-01 12:30N 38°25' W 009°25'5 9.8
2017-Oct-01 12:00N 38°26' W 009°31'5 9.7
2017-Oct-01 11:31N 38°27' W 009°37'5 9.4
2017-Oct-01 11:00N 38°29' W 009°43'5 9.1
2017-Oct-01 10:31N 38°30' W 009°48'5 9.3
2017-Oct-01 10:00N 38°32' W 009°54'5 9.3
2017-Oct-01 09:30N 38°33' W 009°60'5 9.6
2017-Oct-01 09:01N 38°36' W 010°04'611.0
2017-Oct-01 08:30N 38°42' W 010°05'611.2
2017-Oct-01 08:00N 38°47' W 010°05'510.9
2017-Oct-01 07:30N 38°53' W 010°05'510.8
2017-Oct-01 07:00N 38°58' W 010°05'510.5
2017-Oct-01 06:30N 39°03' W 010°05'510.6
2017-Oct-01 06:00N 39°09' W 010°05'510.3
2017-Oct-01 05:30N 39°14' W 010°06'710.6
2017-Oct-01 04:48N 39°21' W 010°06'310.5
2017-Oct-01 04:29N 39°25' W 010°06'610.7
2017-Oct-01 03:54N 39°31' W 010°06'313 7.1
2017-Sep-29 07:33N 43°50' W 006°12'5 9.8
2017-Sep-29 07:00N 43°50' W 006°04'6 9.9
2017-Sep-29 06:23N 43°49' W 005°56'4 9.8
2017-Sep-29 06:00N 43°49' W 005°51'5 9.6
2017-Sep-29 05:31N 43°48' W 005°44'5 9.7
2017-Sep-29 05:01N 43°48' W 005°37'510.0
2017-Sep-29 04:31N 43°47' W 005°30'510.1
2017-Sep-29 04:00N 43°46' W 005°24'5 9.9
2017-Sep-29 03:31N 43°46' W 005°17'510.0
2017-Sep-29 02:59N 43°45' W 005°10'510.3
2017-Sep-29 02:31N 43°45' W 005°03'510.2
2017-Sep-29 02:01N 43°44' W 004°56'510.2
2017-Sep-29 01:31N 43°44' W 004°49'610.3
2017-Sep-29 00:58N 43°43' W 004°41'510.6
2017-Sep-29 00:30N 43°42' W 004°34'510.7
2017-Sep-29 00:00N 43°42' W 004°27'510.5
2017-Sep-28 23:30N 43°41' W 004°20'510.3
2017-Sep-28 23:00N 43°41' W 004°13'510.3
2017-Sep-28 22:30N 43°40' W 004°06'510.2
2017-Sep-28 22:00N 43°39' W 003°59'510.2
2017-Sep-28 21:31N 43°39' W 003°52'510.3
2017-Sep-28 21:00N 43°38' W 003°45'510.1
2017-Sep-28 20:30N 43°38' W 003°38'5 9.8
2017-Sep-28 20:01N 43°36' W 003°31'5 9.7
2017-Sep-28 19:31N 43°34' W 003°25'5 9.7
2017-Sep-28 19:01N 43°32' W 003°19'5 9.8
2017-Sep-28 18:30N 43°30' W 003°13'510.1
2017-Sep-28 18:01N 43°26' W 003°08'  

Dump ship's entire track history